Time;durP1;ratioP1;P1;durP2;ratioP2;P2;SDS_P1;SDS_P2;PMS_P1;PMS_P2;Temp;Humidity;BMP_temperature;BMP_pressure;BME280_temperature;BME280_humidity;BME280_pressure;Samples;Min_cycle;Max_cycle;Signal;HPM_P1;HPM_P2
2022/03/12 00:00:24;;;;;;;15.02;7.05;;;6.50;52.40;;;;;;4951325;28;20081;-60
2022/03/12 00:02:50;;;;;;;14.93;6.85;;;6.50;52.50;;;;;;4935681;28;20569;-61
2022/03/12 00:05:16;;;;;;;10.98;6.80;;;6.50;52.50;;;;;;4940145;28;20055;-61
2022/03/12 00:07:44;;;;;;;12.52;6.97;;;6.50;52.40;;;;;;4934374;28;20512;-61
2022/03/12 00:10:13;;;;;;;16.20;7.47;;;6.40;52.40;;;;;;4937250;28;20134;-60
2022/03/12 00:12:40;;;;;;;15.80;7.50;;;6.50;52.50;;;;;;4935491;28;20048;-61
2022/03/12 00:15:09;;;;;;;12.82;7.00;;;6.50;52.50;;;;;;4936462;28;20508;-61
2022/03/12 00:17:37;;;;;;;16.73;7.32;;;6.50;52.40;;;;;;4936565;28;20055;-60
2022/03/12 00:20:09;;;;;;;12.07;7.10;;;6.50;52.40;;;;;;4952352;28;20087;-61
2022/03/12 00:22:36;;;;;;;10.77;6.95;;;6.50;52.40;;;;;;4938771;28;20043;-61
2022/03/12 00:25:11;;;;;;;12.00;7.32;;;6.50;52.30;;;;;;4921405;28;20140;-61
2022/03/12 00:27:41;;;;;;;14.93;7.13;;;6.50;52.30;;;;;;4938520;28;20051;-61
2022/03/12 00:30:08;;;;;;;10.65;7.43;;;6.50;52.40;;;;;;4937438;28;20480;-61
2022/03/12 00:32:35;;;;;;;13.23;7.75;;;6.50;52.40;;;;;;4936811;28;20054;-60
2022/03/12 00:35:03;;;;;;;13.20;7.65;;;6.50;52.30;;;;;;4937214;28;20051;-61
2022/03/12 00:37:29;;;;;;;12.15;7.35;;;6.50;52.40;;;;;;4926905;28;20126;-60
2022/03/12 00:39:55;;;;;;;14.13;7.75;;;6.40;52.40;;;;;;4937150;28;22070;-60
2022/03/12 00:42:20;;;;;;;16.77;7.68;;;6.40;52.40;;;;;;4937552;28;20052;-61
2022/03/12 00:44:46;;;;;;;12.75;7.03;;;6.40;52.40;;;;;;4928904;28;20051;-61
2022/03/12 00:47:12;;;;;;;16.52;7.35;;;6.40;52.50;;;;;;4935424;28;20368;-59
2022/03/12 00:49:38;;;;;;;11.95;7.10;;;6.40;52.50;;;;;;4919168;28;20058;-60
2022/03/12 00:52:04;;;;;;;14.05;7.50;;;6.40;52.50;;;;;;4936323;28;22599;-61
2022/03/12 00:54:30;;;;;;;10.43;6.78;;;6.40;52.50;;;;;;4937351;28;20055;-61
2022/03/12 00:56:55;;;;;;;14.60;7.32;;;6.40;52.50;;;;;;4937914;28;20054;-62
2022/03/12 00:59:21;;;;;;;12.85;7.72;;;6.40;52.50;;;;;;4939253;28;20047;-59
2022/03/12 01:01:47;;;;;;;15.57;7.68;;;6.50;52.60;;;;;;4947660;28;20062;-60
2022/03/12 01:04:13;;;;;;;12.10;7.55;;;6.40;52.60;;;;;;4938642;28;20762;-61
2022/03/12 01:06:40;;;;;;;11.32;7.40;;;6.30;52.50;;;;;;4939133;28;20047;-61
2022/03/12 01:09:06;;;;;;;14.13;7.35;;;6.30;52.70;;;;;;4925303;28;20054;-61
2022/03/12 01:11:34;;;;;;;13.38;7.40;;;6.30;52.80;;;;;;4939589;28;20481;-61
2022/03/12 01:14:00;;;;;;;11.65;7.07;;;6.30;52.90;;;;;;4940239;28;20076;-61
2022/03/12 01:16:26;;;;;;;12.15;7.32;;;6.30;53.00;;;;;;4939456;28;20159;-61
2022/03/12 01:18:52;;;;;;;14.98;7.60;;;6.20;53.00;;;;;;4948321;28;20052;-62
2022/03/12 01:21:19;;;;;;;12.20;7.10;;;6.30;53.10;;;;;;4940379;28;20054;-61
2022/03/12 01:23:48;;;;;;;11.57;7.25;;;6.20;53.20;;;;;;4908763;28;20104;-60
2022/03/12 01:26:15;;;;;;;16.25;7.75;;;6.20;53.10;;;;;;4941310;28;20055;-62
2022/03/12 01:28:42;;;;;;;14.25;6.90;;;6.20;53.10;;;;;;4938696;28;20058;-62
2022/03/12 01:31:08;;;;;;;12.70;8.23;;;6.20;53.10;;;;;;4929290;28;20726;-61
2022/03/12 01:33:34;;;;;;;18.48;7.65;;;6.30;53.20;;;;;;4941049;28;20039;-61
2022/03/12 01:36:00;;;;;;;12.85;7.65;;;6.20;53.20;;;;;;4942015;28;20089;-62
2022/03/12 01:38:35;;;;;;;14.18;7.55;;;6.20;53.20;;;;;;4941980;28;20049;-61
2022/03/12 01:41:02;;;;;;;13.40;7.28;;;6.20;53.30;;;;;;4940313;28;20070;-62
2022/03/12 01:43:34;;;;;;;13.93;7.55;;;6.10;53.20;;;;;;4942188;28;20047;-61
2022/03/12 01:46:01;;;;;;;12.07;7.60;;;6.20;53.30;;;;;;4940287;28;20055;-62
2022/03/12 01:48:30;;;;;;;14.90;7.57;;;6.20;53.20;;;;;;4940733;28;20094;-60
2022/03/12 01:50:58;;;;;;;12.02;7.35;;;6.10;53.30;;;;;;4919194;28;20508;-62
2022/03/12 01:53:27;;;;;;;11.30;6.97;;;6.10;53.30;;;;;;4941674;28;20705;-61
2022/03/12 01:55:53;;;;;;;12.00;7.13;;;6.20;53.30;;;;;;4940972;28;20051;-61
2022/03/12 01:58:19;;;;;;;18.77;7.72;;;6.10;53.20;;;;;;4940862;28;20497;-61
2022/03/12 02:00:48;;;;;;;13.10;7.85;;;6.10;53.40;;;;;;4935253;28;20174;-61
2022/03/12 02:03:16;;;;;;;10.93;7.40;;;6.10;53.90;;;;;;4941069;28;20154;-61
2022/03/12 02:05:43;;;;;;;13.10;7.57;;;6.10;53.30;;;;;;4936960;28;20051;-61
2022/03/12 02:08:19;;;;;;;12.52;7.80;;;6.10;53.30;;;;;;4939698;28;20090;-59
2022/03/12 02:10:47;;;;;;;12.48;7.70;;;6.10;53.40;;;;;;4923999;28;20545;-62
2022/03/12 02:13:13;;;;;;;11.60;7.57;;;6.10;53.60;;;;;;4923244;28;20054;-62
2022/03/12 02:15:39;;;;;;;13.35;7.65;;;6.00;53.50;;;;;;4938158;28;20058;-60
2022/03/12 02:18:06;;;;;;;10.55;7.40;;;6.10;53.60;;;;;;4938997;28;20066;-59
2022/03/12 02:20:32;;;;;;;12.18;7.53;;;6.00;53.60;;;;;;4938545;28;20043;-62
2022/03/12 02:22:59;;;;;;;13.73;7.43;;;6.10;53.60;;;;;;4940131;28;20527;-60
2022/03/12 02:25:33;;;;;;;15.27;8.18;;;6.00;53.60;;;;;;4938884;28;20137;-62
2022/03/12 02:28:00;;;;;;;11.70;7.90;;;6.00;53.80;;;;;;4941350;28;21224;-62
2022/03/12 02:30:33;;;;;;;17.67;8.63;;;6.00;53.80;;;;;;4938966;28;20058;-61
2022/03/12 02:33:01;;;;;;;11.07;7.70;;;6.00;53.90;;;;;;4939219;28;20077;-61
2022/03/12 02:35:28;;;;;;;11.93;7.63;;;6.00;54.00;;;;;;4938579;28;20509;-60
2022/03/12 02:37:54;;;;;;;14.18;7.72;;;6.00;54.70;;;;;;4939959;28;22286;-61
2022/03/12 02:40:20;;;;;;;12.68;7.80;;;5.90;54.20;;;;;;4939180;28;20643;-59
2022/03/12 02:42:48;;;;;;;14.32;8.05;;;5.90;54.30;;;;;;4940881;28;20337;-61
2022/03/12 02:45:14;;;;;;;12.35;7.82;;;5.90;54.30;;;;;;4933665;28;20418;-61
2022/03/12 02:47:42;;;;;;;12.95;7.60;;;5.90;54.30;;;;;;4938617;28;20051;-59
2022/03/12 02:50:10;;;;;;;11.77;7.85;;;5.90;54.40;;;;;;4913094;29;20132;-62
2022/03/12 02:52:41;;;;;;;13.95;7.70;;;5.90;54.60;;;;;;4935515;28;20087;-61
2022/03/12 02:55:35;;;;;;;11.35;7.85;;;5.90;54.60;;;;;;4941359;28;20081;-62
2022/03/12 02:58:02;;;;;;;12.45;7.75;;;5.90;54.60;;;;;;4937168;28;20051;-61
2022/03/12 03:00:28;;;;;;;11.98;7.95;;;5.80;54.60;;;;;;4938104;28;20494;-61
2022/03/12 03:02:54;;;;;;;12.23;7.30;;;5.80;54.60;;;;;;4936168;28;20062;-62
2022/03/12 03:05:38;;;;;;;16.60;8.15;;;5.80;54.70;;;;;;4937547;28;20110;-62
2022/03/12 03:08:09;;;;;;;15.65;8.15;;;5.80;54.80;;;;;;4940360;28;20056;-61
2022/03/12 03:10:37;;;;;;;13.02;8.40;;;5.80;54.90;;;;;;4938512;28;20117;-61
2022/03/12 03:13:16;;;;;;;10.80;7.80;;;5.80;55.00;;;;;;4922895;28;20051;-62
2022/03/12 03:15:49;;;;;;;13.32;7.85;;;5.80;55.10;;;;;;4920909;28;20058;-61
2022/03/12 03:18:16;;;;;;;12.43;8.00;;;5.80;55.10;;;;;;4928787;28;20047;-61
2022/03/12 03:20:43;;;;;;;12.27;8.10;;;5.80;55.20;;;;;;4937674;28;20083;-61
2022/03/12 03:23:09;;;;;;;11.07;7.72;;;5.80;55.20;;;;;;4936474;28;20054;-61
2022/03/12 03:25:36;;;;;;;14.07;7.38;;;5.80;55.20;;;;;;4938542;28;20125;-61
2022/03/12 03:28:03;;;;;;;13.52;7.82;;;5.80;55.30;;;;;;4938476;28;20498;-60
2022/03/12 03:30:37;;;;;;;15.98;7.88;;;5.80;55.30;;;;;;4939660;28;20062;-62
2022/03/12 03:33:06;;;;;;;16.85;8.02;;;5.80;55.40;;;;;;4938769;28;20455;-61
2022/03/12 03:35:32;;;;;;;10.20;7.63;;;5.80;55.40;;;;;;4921653;28;20062;-62
2022/03/12 03:37:58;;;;;;;14.45;7.72;;;5.80;55.40;;;;;;4939307;28;20047;-61
2022/03/12 03:40:25;;;;;;;19.13;7.78;;;5.70;55.50;;;;;;4935469;28;20051;-62
2022/03/12 03:42:51;;;;;;;16.95;7.75;;;5.80;55.50;;;;;;4937142;28;20057;-61
2022/03/12 03:45:22;;;;;;;9.65;7.22;;;5.70;55.40;;;;;;4939278;28;20039;-61
2022/03/12 03:47:50;;;;;;;14.25;8.15;;;5.70;55.50;;;;;;4938319;28;20055;-62
2022/03/12 03:50:17;;;;;;;11.75;7.70;;;5.70;55.50;;;;;;4937669;28;20199;-61
2022/03/12 03:52:43;;;;;;;11.57;7.65;;;5.70;55.60;;;;;;4936998;28;20487;-62
2022/03/12 03:55:08;;;;;;;12.18;7.80;;;5.80;55.70;;;;;;4938361;28;20047;-60
2022/03/12 03:57:34;;;;;;;15.20;8.25;;;5.70;55.70;;;;;;4937825;28;20525;-61
2022/03/12 04:00:00;;;;;;;12.93;8.25;;;5.70;55.80;;;;;;4936628;28;20047;-61
2022/03/12 04:02:26;;;;;;;16.85;8.30;;;5.70;55.80;;;;;;4934494;28;20109;-60
2022/03/12 04:04:53;;;;;;;13.38;8.02;;;5.70;55.80;;;;;;4938818;28;20138;-62
2022/03/12 04:07:19;;;;;;;12.32;7.63;;;5.70;55.90;;;;;;4928247;28;20082;-62
2022/03/12 04:09:45;;;;;;;12.50;7.38;;;5.70;55.90;;;;;;4939239;28;20139;-61
2022/03/12 04:12:10;;;;;;;13.63;7.85;;;5.60;55.80;;;;;;4933359;28;20587;-62
2022/03/12 04:14:36;;;;;;;12.43;7.78;;;5.60;55.90;;;;;;4934817;28;20051;-61
2022/03/12 04:17:04;;;;;;;17.25;7.70;;;5.60;56.00;;;;;;4936163;28;20051;-61
2022/03/12 04:19:30;;;;;;;12.52;8.10;;;5.60;56.10;;;;;;4911819;28;20058;-61
2022/03/12 04:21:57;;;;;;;11.98;7.88;;;5.60;56.20;;;;;;4937391;28;20154;-62
2022/03/12 04:24:24;;;;;;;10.52;7.55;;;5.60;56.20;;;;;;4938535;28;20518;-62
2022/03/12 04:26:51;;;;;;;10.32;7.65;;;5.50;56.30;;;;;;4928584;28;20241;-62
2022/03/12 04:29:19;;;;;;;12.38;7.85;;;5.50;56.40;;;;;;4936974;28;20062;-62
2022/03/12 04:31:48;;;;;;;12.88;7.97;;;5.50;56.50;;;;;;4936173;28;20054;-60
2022/03/12 04:34:14;;;;;;;15.65;7.60;;;5.50;56.60;;;;;;4939492;28;20062;-60
2022/03/12 04:36:46;;;;;;;12.13;8.10;;;5.40;56.60;;;;;;4938698;28;20461;-61
2022/03/12 04:39:12;;;;;;;13.35;7.97;;;5.40;56.70;;;;;;4939275;28;20106;-61
2022/03/12 04:41:40;;;;;;;12.10;8.07;;;5.40;56.70;;;;;;4940589;28;20955;-61
2022/03/12 04:44:09;;;;;;;11.35;7.38;;;5.40;56.80;;;;;;4939316;28;20066;-62
2022/03/12 04:46:36;;;;;;;10.27;7.38;;;5.40;56.80;;;;;;4941128;28;20829;-61
2022/03/12 04:49:04;;;;;;;14.00;8.38;;;5.40;56.80;;;;;;4941428;28;20050;-61
2022/03/12 04:51:30;;;;;;;11.98;8.23;;;5.40;56.80;;;;;;4939970;28;20137;-62
2022/03/12 04:54:00;;;;;;;12.13;7.68;;;5.40;56.70;;;;;;4919315;28;20047;-60
2022/03/12 04:56:27;;;;;;;11.13;7.95;;;5.30;56.70;;;;;;4941607;28;20043;-60
2022/03/12 04:58:54;;;;;;;10.65;7.65;;;5.40;56.80;;;;;;4933068;28;20412;-61
2022/03/12 05:01:20;;;;;;;12.40;7.95;;;5.30;56.80;;;;;;4924270;28;20499;-60
2022/03/12 05:03:47;;;;;;;11.70;8.15;;;5.40;56.90;;;;;;4924358;28;20050;-62
2022/03/12 05:06:13;;;;;;;13.23;8.40;;;5.40;56.90;;;;;;4925028;29;20051;-63
2022/03/12 05:08:40;;;;;;;15.25;8.10;;;5.30;56.70;;;;;;4939054;28;20062;-61
2022/03/12 05:11:06;;;;;;;14.25;8.13;;;5.40;56.80;;;;;;4937067;28;20134;-62
2022/03/12 05:13:32;;;;;;;14.57;8.70;;;5.40;56.70;;;;;;4937804;28;20118;-60
2022/03/12 05:16:06;;;;;;;13.15;8.57;;;5.40;56.60;;;;;;4938608;28;20050;-61
2022/03/12 05:18:34;;;;;;;12.60;7.68;;;5.40;56.60;;;;;;4933255;28;20118;-62
2022/03/12 05:21:00;;;;;;;14.18;7.63;;;5.40;56.40;;;;;;4940851;28;20043;-61
2022/03/12 05:23:26;;;;;;;14.13;7.97;;;5.40;56.30;;;;;;4923794;28;20051;-62
2022/03/12 05:25:52;;;;;;;13.38;7.65;;;5.40;56.30;;;;;;4941555;28;20054;-62
2022/03/12 05:28:26;;;;;;;11.13;7.65;;;5.40;56.30;;;;;;4931871;28;20533;-61
2022/03/12 05:30:58;;;;;;;12.27;8.00;;;5.40;56.40;;;;;;4937932;28;20229;-61
2022/03/12 05:33:25;;;;;;;12.88;8.02;;;5.40;56.40;;;;;;4939769;28;20058;-61
2022/03/12 05:35:54;;;;;;;14.85;7.68;;;5.40;56.40;;;;;;4941471;28;20055;-62
2022/03/12 05:38:21;;;;;;;11.90;8.02;;;5.40;56.50;;;;;;4941854;28;20494;-62
2022/03/12 05:40:48;;;;;;;12.35;7.53;;;5.40;56.50;;;;;;4940990;28;20498;-61
2022/03/12 05:43:15;;;;;;;15.05;8.02;;;5.40;56.40;;;;;;4939639;28;20540;-62
2022/03/12 05:45:47;;;;;;;12.73;7.97;;;5.40;56.40;;;;;;4930470;28;20090;-61
2022/03/12 05:48:14;;;;;;;13.23;7.60;;;5.40;56.40;;;;;;4939071;28;20130;-62
2022/03/12 05:50:42;;;;;;;11.38;7.65;;;5.40;56.40;;;;;;4920661;28;20663;-62
2022/03/12 05:53:09;;;;;;;12.73;7.72;;;5.40;56.40;;;;;;4939255;28;20486;-62
2022/03/12 05:55:39;;;;;;;11.73;7.45;;;5.40;56.40;;;;;;4907039;28;20051;-61
2022/03/12 05:58:07;;;;;;;10.45;7.22;;;5.40;56.20;;;;;;4940498;28;20118;-61
2022/03/12 06:00:34;;;;;;;12.43;7.25;;;5.40;56.10;;;;;;4939123;28;20106;-61
2022/03/12 06:03:01;;;;;;;11.10;7.53;;;5.40;56.00;;;;;;4937214;28;20452;-61
2022/03/12 06:05:27;;;;;;;12.85;7.50;;;5.40;56.00;;;;;;4941455;28;20823;-62
2022/03/12 06:07:54;;;;;;;10.45;6.95;;;5.40;56.10;;;;;;4921517;28;20774;-62
2022/03/12 06:10:29;;;;;;;10.07;7.55;;;5.40;56.10;;;;;;4940102;28;20047;-61
2022/03/12 06:12:56;;;;;;;14.50;7.85;;;5.50;56.30;;;;;;4938305;28;20043;-58
2022/03/12 06:15:23;;;;;;;10.90;7.25;;;5.50;56.20;;;;;;4937948;28;20057;-60
2022/03/12 06:17:50;;;;;;;13.30;7.05;;;5.50;56.10;;;;;;4921918;28;20055;-60
2022/03/12 06:20:20;;;;;;;10.88;7.30;;;5.50;56.10;;;;;;4937337;28;20083;-62
2022/03/12 06:22:48;;;;;;;11.60;7.00;;;5.40;55.90;;;;;;4920963;29;22482;-61
2022/03/12 06:25:16;;;;;;;12.57;6.75;;;5.50;55.90;;;;;;4938361;28;20051;-61
2022/03/12 06:27:45;;;;;;;9.98;7.28;;;5.40;55.90;;;;;;4944990;28;20051;-60
2022/03/12 06:30:13;;;;;;;10.60;7.10;;;5.40;55.90;;;;;;4941088;28;20158;-62
2022/03/12 06:32:42;;;;;;;16.65;7.43;;;5.40;55.90;;;;;;4931231;28;20134;-60
2022/03/12 06:35:09;;;;;;;9.68;7.18;;;5.40;56.00;;;;;;4935415;28;20052;-61
2022/03/12 06:37:34;;;;;;;12.98;7.78;;;5.40;56.10;;;;;;4937577;28;20047;-61
2022/03/12 06:40:00;;;;;;;12.70;7.22;;;5.40;56.20;;;;;;4914147;29;20051;-61
2022/03/12 06:42:30;;;;;;;12.32;7.57;;;5.40;56.30;;;;;;4942433;28;20054;-61
2022/03/12 06:44:57;;;;;;;13.60;7.45;;;5.30;56.30;;;;;;4939177;28;20058;-62
2022/03/12 06:47:32;;;;;;;11.82;6.85;;;5.40;56.40;;;;;;4939064;28;20043;-61
2022/03/12 06:49:59;;;;;;;14.05;7.75;;;5.40;56.40;;;;;;4942486;28;20062;-62
2022/03/12 06:52:27;;;;;;;14.45;7.63;;;5.40;56.50;;;;;;4936417;28;20062;-61
2022/03/12 06:54:53;;;;;;;10.50;7.13;;;5.40;56.50;;;;;;4940522;28;20078;-62
2022/03/12 06:57:19;;;;;;;11.63;7.20;;;5.40;56.50;;;;;;4938565;28;20515;-62
2022/03/12 06:59:45;;;;;;;14.15;7.70;;;5.40;56.60;;;;;;4931212;28;20501;-62
2022/03/12 07:02:11;;;;;;;12.13;7.55;;;5.40;56.60;;;;;;4939432;28;20106;-62
2022/03/12 07:04:38;;;;;;;12.48;7.70;;;5.50;56.80;;;;;;4940094;28;20163;-62
2022/03/12 07:07:04;;;;;;;13.35;6.95;;;5.40;56.80;;;;;;4940128;28;20069;-62
2022/03/12 07:09:30;;;;;;;12.38;7.60;;;5.40;56.90;;;;;;4941337;28;20097;-61
2022/03/12 07:11:58;;;;;;;14.43;7.60;;;5.50;56.90;;;;;;4937565;28;20114;-62
2022/03/12 07:14:27;;;;;;;10.88;7.00;;;5.40;57.60;;;;;;4941052;28;20047;-61
2022/03/12 07:16:54;;;;;;;10.90;7.00;;;5.50;57.00;;;;;;4939228;28;20058;-60
2022/03/12 07:19:21;;;;;;;10.45;7.25;;;5.50;56.90;;;;;;4938770;28;20057;-62
2022/03/12 07:21:49;;;;;;;13.82;6.90;;;5.50;56.80;;;;;;4933003;28;20047;-62
2022/03/12 07:24:15;;;;;;;12.32;7.18;;;5.60;56.80;;;;;;4933780;29;20494;-62
2022/03/12 07:26:43;;;;;;;10.95;6.80;;;5.60;56.80;;;;;;4940883;28;20039;-62
2022/03/12 07:29:08;;;;;;;12.02;7.20;;;5.60;56.90;;;;;;4935933;28;20117;-59
2022/03/12 07:31:37;;;;;;;15.18;7.20;;;5.60;56.80;;;;;;4956203;28;20563;-60
2022/03/12 07:34:03;;;;;;;17.92;7.35;;;5.60;56.70;;;;;;4941618;28;20058;-61
2022/03/12 07:36:29;;;;;;;13.40;7.43;;;5.60;56.80;;;;;;4941597;28;20448;-61
2022/03/12 07:38:58;;;;;;;9.63;6.78;;;5.60;56.90;;;;;;4920212;29;20101;-62
2022/03/12 07:41:25;;;;;;;12.73;6.97;;;5.60;57.20;;;;;;4929951;29;20051;-61
2022/03/12 07:43:53;;;;;;;10.45;7.07;;;5.60;57.00;;;;;;4941319;28;20066;-62
2022/03/12 07:46:19;;;;;;;10.65;7.10;;;5.60;56.90;;;;;;4941454;28;20101;-61
2022/03/12 07:48:45;;;;;;;14.77;7.70;;;5.60;56.90;;;;;;4943211;28;20486;-61
2022/03/12 07:51:11;;;;;;;14.80;7.10;;;5.60;56.90;;;;;;4931249;28;20051;-62
2022/03/12 07:53:37;;;;;;;16.90;7.60;;;5.60;57.10;;;;;;4943111;28;20554;-62
2022/03/12 07:56:04;;;;;;;16.35;7.65;;;5.70;57.10;;;;;;4941974;28;20478;-62
2022/03/12 07:58:30;;;;;;;12.02;7.78;;;5.70;57.00;;;;;;4934932;28;20151;-62
2022/03/12 08:00:58;;;;;;;10.68;6.70;;;5.80;57.00;;;;;;4940998;28;20068;-62
2022/03/12 08:03:25;;;;;;;9.98;7.03;;;5.80;56.90;;;;;;4942573;28;20110;-62
2022/03/12 08:05:51;;;;;;;12.05;7.40;;;5.90;57.00;;;;;;4930062;28;20349;-61
2022/03/12 08:08:18;;;;;;;14.88;7.47;;;6.00;57.00;;;;;;4942414;29;20051;-62
2022/03/12 08:13:29;;;;;;;13.38;7.70;;;6.10;56.90;;;;;;4943133;28;20047;-61
2022/03/12 08:15:56;;;;;;;13.48;7.18;;;6.20;57.00;;;;;;4946737;28;20513;-62
2022/03/12 08:18:23;;;;;;;11.82;7.20;;;6.20;57.10;;;;;;4939127;28;20062;-63
2022/03/12 08:20:49;;;;;;;15.32;7.50;;;6.30;57.10;;;;;;4944416;28;20162;-60
2022/03/12 08:23:15;;;;;;;14.18;7.85;;;6.40;57.20;;;;;;4935299;28;20054;-61
2022/03/12 08:25:41;;;;;;;15.23;8.63;;;6.60;57.40;;;;;;4936532;28;20490;-61
2022/03/12 08:28:07;;;;;;;18.10;7.85;;;6.70;57.20;;;;;;4946556;29;20047;-62
2022/03/12 08:30:34;;;;;;;13.50;7.85;;;6.90;57.00;;;;;;4945073;28;20047;-61
2022/03/12 08:33:01;;;;;;;12.20;8.27;;;6.90;57.00;;;;;;4945195;28;20055;-62
2022/03/12 08:35:26;;;;;;;14.60;7.90;;;7.10;57.00;;;;;;4927907;29;20501;-62
2022/03/12 08:37:53;;;;;;;15.00;8.43;;;7.20;56.90;;;;;;4945185;28;20697;-62
2022/03/12 08:40:19;;;;;;;13.38;7.85;;;7.30;57.00;;;;;;4946572;28;20049;-62
2022/03/12 08:42:45;;;;;;;12.98;8.35;;;7.40;57.00;;;;;;4944236;28;20055;-60
2022/03/12 08:45:13;;;;;;;12.88;8.52;;;7.60;57.10;;;;;;4944495;29;20047;-61
2022/03/12 08:47:40;;;;;;;15.35;8.35;;;7.70;57.10;;;;;;4945467;28;20055;-61
2022/03/12 08:50:10;;;;;;;12.20;8.15;;;7.80;57.00;;;;;;4946335;28;20059;-61
2022/03/12 08:52:42;;;;;;;13.90;7.85;;;8.00;57.00;;;;;;4944257;28;20458;-60
2022/03/12 08:55:11;;;;;;;12.30;8.18;;;8.20;57.10;;;;;;4947658;28;20120;-62
2022/03/12 08:57:37;;;;;;;13.50;8.75;;;8.30;57.00;;;;;;4944782;28;20050;-62
2022/03/12 09:00:06;;;;;;;14.23;8.05;;;8.40;56.80;;;;;;4947230;29;20663;-62
2022/03/12 09:02:34;;;;;;;14.20;8.63;;;8.50;56.90;;;;;;4943305;28;20054;-62
2022/03/12 09:05:04;;;;;;;15.40;8.52;;;8.60;57.10;;;;;;4946526;28;20059;-61
2022/03/12 09:07:30;;;;;;;13.55;8.48;;;8.70;57.20;;;;;;4936803;28;20217;-62
2022/03/12 09:09:56;;;;;;;13.93;8.43;;;8.80;57.30;;;;;;4943325;28;20078;-62
2022/03/12 09:12:22;;;;;;;11.30;8.35;;;8.90;57.30;;;;;;4942951;28;20090;-60
2022/03/12 09:14:49;;;;;;;13.48;8.73;;;9.00;57.30;;;;;;4944684;29;20075;-62
2022/03/12 09:17:15;;;;;;;11.15;8.15;;;9.10;57.30;;;;;;4943243;28;20122;-62
2022/03/12 09:19:41;;;;;;;16.85;8.68;;;9.20;57.30;;;;;;4945907;28;20043;-62
2022/03/12 09:22:07;;;;;;;13.70;8.82;;;9.30;57.30;;;;;;4941673;28;20043;-62
2022/03/12 09:24:34;;;;;;;13.05;9.23;;;9.40;57.40;;;;;;4942615;28;20055;-59
2022/03/12 09:27:00;;;;;;;19.17;8.93;;;9.60;57.40;;;;;;4944524;28;20150;-62
2022/03/12 09:29:26;;;;;;;12.93;9.32;;;9.70;57.60;;;;;;4943921;28;20039;-61
2022/03/12 09:31:52;;;;;;;15.50;9.10;;;9.90;57.50;;;;;;4942493;28;20050;-62
2022/03/12 09:34:18;;;;;;;11.85;8.82;;;10.10;57.70;;;;;;4942546;28;20047;-62
2022/03/12 09:36:44;;;;;;;15.75;8.70;;;10.30;57.90;;;;;;4926216;28;20552;-63
2022/03/12 09:39:10;;;;;;;14.45;9.52;;;10.40;57.70;;;;;;4941217;28;20051;-62
2022/03/12 09:41:38;;;;;;;15.63;8.88;;;10.50;57.60;;;;;;4938786;28;20059;-61
2022/03/12 09:44:05;;;;;;;13.20;8.95;;;10.60;57.80;;;;;;4957478;28;20066;-61
2022/03/12 09:46:31;;;;;;;17.95;9.88;;;10.80;58.10;;;;;;4941285;28;20054;-61
2022/03/12 09:48:57;;;;;;;17.83;9.48;;;10.90;58.10;;;;;;4926339;28;20084;-62
2022/03/12 09:51:25;;;;;;;16.67;9.27;;;11.00;58.30;;;;;;4942698;28;20051;-63
2022/03/12 09:53:51;;;;;;;12.68;8.95;;;11.00;58.50;;;;;;4940469;28;20047;-63
2022/03/12 09:56:17;;;;;;;11.65;9.10;;;11.10;58.90;;;;;;4920643;28;20039;-62
2022/03/12 09:58:43;;;;;;;13.35;9.05;;;11.20;59.10;;;;;;4943044;28;20129;-62
2022/03/12 10:01:12;;;;;;;14.15;9.43;;;11.30;59.30;;;;;;4939869;28;20051;-62
2022/03/12 10:03:38;;;;;;;13.65;9.85;;;11.40;59.80;;;;;;4941639;28;20086;-61
2022/03/12 10:06:05;;;;;;;13.15;9.35;;;11.50;60.10;;;;;;4940791;28;20051;-62
2022/03/12 10:08:31;;;;;;;14.63;9.18;;;11.60;60.00;;;;;;4931779;29;20407;-62
2022/03/12 10:10:57;;;;;;;13.23;8.82;;;11.60;60.10;;;;;;4939230;28;20063;-63
2022/03/12 10:13:23;;;;;;;13.65;9.20;;;11.70;60.10;;;;;;4919692;29;20047;-61
2022/03/12 10:15:49;;;;;;;14.90;9.40;;;11.80;60.20;;;;;;4932208;28;20109;-62
2022/03/12 10:18:15;;;;;;;17.17;10.38;;;11.80;60.50;;;;;;4942695;28;20502;-61
2022/03/12 10:20:41;;;;;;;15.25;8.80;;;11.90;60.60;;;;;;4940460;28;20094;-62
2022/03/12 10:23:07;;;;;;;12.80;9.35;;;12.00;60.70;;;;;;4940052;28;20133;-61
2022/03/12 10:25:34;;;;;;;17.35;9.40;;;12.10;60.70;;;;;;4937018;28;20845;-60
2022/03/12 10:28:00;;;;;;;13.85;9.48;;;12.10;60.90;;;;;;4923427;28;20497;-62
2022/03/12 10:30:26;;;;;;;19.80;10.20;;;12.20;60.90;;;;;;4936871;28;20113;-62
2022/03/12 10:32:52;;;;;;;15.60;9.88;;;12.30;61.10;;;;;;4939080;28;20137;-62
2022/03/12 10:35:20;;;;;;;13.95;9.68;;;12.40;61.20;;;;;;4941463;28;20058;-61
2022/03/12 10:37:52;;;;;;;13.55;9.63;;;12.50;61.40;;;;;;4941064;28;20043;-62
2022/03/12 10:40:24;;;;;;;18.17;9.80;;;12.70;61.70;;;;;;4940858;28;20486;-60
2022/03/12 10:42:56;;;;;;;14.77;9.43;;;12.80;61.90;;;;;;4937963;28;20047;-62
2022/03/12 10:45:25;;;;;;;17.47;9.30;;;12.90;62.40;;;;;;4939957;28;20460;-62
2022/03/12 10:47:56;;;;;;;12.68;9.45;;;13.00;62.50;;;;;;4932353;28;20593;-62
2022/03/12 10:50:29;;;;;;;15.35;9.57;;;13.10;62.50;;;;;;4956956;28;20051;-62
2022/03/12 10:52:57;;;;;;;12.95;9.20;;;13.10;62.60;;;;;;4940070;28;20047;-63
2022/03/12 10:55:29;;;;;;;13.43;9.65;;;13.10;62.70;;;;;;4939916;28;20051;-62
2022/03/12 10:58:08;;;;;;;15.55;9.43;;;13.10;62.90;;;;;;4940283;28;20051;-62
2022/03/12 11:00:55;;;;;;;14.18;9.43;;;13.00;63.00;;;;;;4921944;28;20059;-62
2022/03/12 11:03:23;;;;;;;13.32;9.60;;;13.00;63.60;;;;;;4930548;29;20517;-61
2022/03/12 11:05:51;;;;;;;16.25;9.48;;;13.00;63.60;;;;;;4937577;28;20510;-61
2022/03/12 11:08:26;;;;;;;12.55;9.20;;;13.00;63.70;;;;;;4942456;28;20062;-62
2022/03/12 11:11:00;;;;;;;13.75;9.52;;;13.10;64.30;;;;;;4938026;28;20098;-59
2022/03/12 11:13:28;;;;;;;13.38;9.75;;;13.20;64.10;;;;;;4940266;28;20488;-60
2022/03/12 11:16:11;;;;;;;13.68;10.15;;;13.30;64.10;;;;;;4939261;28;20765;-61
2022/03/12 11:18:38;;;;;;;13.20;9.60;;;13.40;64.30;;;;;;4940113;28;20501;-62
2022/03/12 11:21:04;;;;;;;15.07;9.30;;;13.40;64.10;;;;;;4937914;28;20049;-61
2022/03/12 11:23:31;;;;;;;15.55;9.20;;;13.50;64.00;;;;;;4927477;28;20387;-61
2022/03/12 11:26:05;;;;;;;13.95;9.43;;;13.60;64.20;;;;;;4924817;28;20362;-61
2022/03/12 11:28:34;;;;;;;12.88;9.32;;;13.70;64.30;;;;;;4941431;28;20082;-61
2022/03/12 11:31:01;;;;;;;12.95;8.80;;;13.90;64.30;;;;;;4938543;28;20051;-61
2022/03/12 11:33:27;;;;;;;11.30;8.02;;;14.00;64.40;;;;;;4941594;28;20099;-61
2022/03/12 11:36:02;;;;;;;11.52;7.80;;;14.10;64.40;;;;;;4939599;28;20055;-59
2022/03/12 11:38:28;;;;;;;10.45;7.60;;;14.20;64.80;;;;;;4940449;28;20090;-62
2022/03/12 11:41:09;;;;;;;10.40;7.47;;;14.20;64.80;;;;;;4927927;28;20059;-62
2022/03/12 11:43:40;;;;;;;9.57;7.03;;;14.30;65.20;;;;;;4940264;28;20059;-61
2022/03/12 11:46:08;;;;;;;9.30;6.50;;;14.30;65.10;;;;;;4939220;28;20047;-60
2022/03/12 11:48:38;;;;;;;10.18;6.80;;;14.30;65.20;;;;;;4929039;28;20065;-61
2022/03/12 11:51:24;;;;;;;10.13;6.43;;;14.30;65.30;;;;;;4939278;28;20089;-61
2022/03/12 11:53:52;;;;;;;12.57;6.88;;;14.40;65.50;;;;;;4921542;28;20509;-61
2022/03/12 11:56:19;;;;;;;10.32;6.60;;;14.50;65.10;;;;;;4938762;28;20055;-61
2022/03/12 11:58:46;;;;;;;11.90;7.03;;;14.50;64.80;;;;;;4936779;28;20043;-59
2022/03/12 12:01:20;;;;;;;14.13;7.05;;;14.50;65.30;;;;;;4936985;28;20047;-61
2022/03/12 12:03:47;;;;;;;10.18;7.45;;;14.60;65.70;;;;;;4908337;28;20140;-61
2022/03/12 12:06:14;;;;;;;9.75;7.15;;;14.70;65.60;;;;;;4925529;28;20498;-61
2022/03/12 12:08:40;;;;;;;13.43;6.63;;;14.80;65.30;;;;;;4940091;28;20685;-61
2022/03/12 12:11:06;;;;;;;9.23;7.03;;;14.90;65.20;;;;;;4939524;28;20074;-61
2022/03/12 12:13:33;;;;;;;10.57;6.30;;;15.00;65.20;;;;;;4955259;28;20055;-61
2022/03/12 12:15:59;;;;;;;12.38;6.55;;;15.00;65.00;;;;;;4934138;28;20110;-61
2022/03/12 12:18:25;;;;;;;11.50;6.50;;;15.10;64.80;;;;;;4956984;28;20050;-61
2022/03/12 12:20:51;;;;;;;9.88;6.40;;;15.20;64.70;;;;;;4939161;28;20060;-60
2022/03/12 12:23:18;;;;;;;10.50;6.07;;;15.20;64.10;;;;;;4940085;28;20158;-61
2022/03/12 12:25:46;;;;;;;9.38;6.13;;;15.20;63.80;;;;;;4941983;28;20059;-62
2022/03/12 12:28:20;;;;;;;13.20;7.03;;;15.20;63.70;;;;;;4941448;28;20086;-60
2022/03/12 12:30:49;;;;;;;9.75;6.70;;;15.10;64.00;;;;;;4940317;28;20046;-60
2022/03/12 12:33:22;;;;;;;11.65;7.03;;;15.20;64.40;;;;;;4940829;28;20046;-61
2022/03/12 12:36:10;;;;;;;12.55;6.82;;;15.30;64.40;;;;;;4942648;28;20509;-59
2022/03/12 12:38:36;;;;;;;10.25;6.45;;;15.30;64.30;;;;;;4940097;28;20043;-61
2022/03/12 12:41:03;;;;;;;11.52;6.57;;;15.30;64.10;;;;;;4939716;28;20723;-62
2022/03/12 12:43:39;;;;;;;10.52;6.63;;;15.30;63.90;;;;;;4941571;29;20098;-61
2022/03/12 12:46:17;;;;;;;8.57;6.05;;;15.30;63.70;;;;;;4940192;28;20130;-61
2022/03/12 12:49:00;;;;;;;8.90;6.57;;;15.40;63.80;;;;;;4940649;28;20047;-61
2022/03/12 12:51:27;;;;;;;10.20;5.95;;;15.40;63.90;;;;;;4940164;28;20090;-61